createdAt,value
2019-04-16T00:00:22.195Z,4.77
2019-04-16T00:01:22.074Z,4.77
2019-04-16T00:02:22.078Z,4.67
2019-04-16T00:04:22.267Z,4.59
2019-04-16T00:05:21.962Z,4.60
2019-04-16T00:06:22.344Z,4.56
2019-04-16T00:07:21.980Z,4.45
2019-04-16T00:08:27.849Z,4.42
2019-04-16T00:09:22.053Z,4.43
2019-04-16T00:10:21.939Z,4.41
2019-04-16T00:11:21.891Z,4.42
2019-04-16T00:12:21.883Z,4.41
2019-04-16T00:13:22.156Z,4.42
2019-04-16T00:14:21.769Z,4.39
2019-04-16T00:15:21.808Z,4.38
2019-04-16T00:16:21.772Z,4.26
2019-04-16T00:17:21.808Z,4.23
2019-04-16T00:18:21.752Z,4.17
2019-04-16T00:19:21.737Z,4.16
2019-04-16T00:20:21.882Z,4.13
2019-04-16T00:21:21.551Z,4.13
2019-04-16T00:22:21.618Z,3.99
2019-04-16T00:23:21.604Z,3.94
2019-04-16T00:25:21.443Z,3.92
2019-04-16T00:26:21.431Z,3.90
2019-04-16T00:30:21.316Z,3.73
2019-04-16T00:31:21.291Z,3.81
2019-04-16T00:32:21.264Z,3.80
2019-04-16T00:33:21.313Z,3.66
2019-04-16T00:36:21.466Z,3.62
2019-04-16T00:38:22.737Z,3.64
2019-04-16T00:39:24.466Z,3.56
2019-04-16T00:41:21.047Z,3.63
2019-04-16T00:42:21.119Z,3.62
2019-04-16T00:43:21.395Z,3.56
2019-04-16T00:44:21.045Z,3.64
2019-04-16T00:45:20.935Z,3.56
2019-04-16T00:46:20.912Z,3.56
2019-04-16T00:47:21.010Z,3.54
2019-04-16T00:48:20.987Z,3.46
2019-04-16T00:49:21.138Z,3.56
2019-04-16T00:50:20.814Z,3.56
2019-04-16T00:51:20.887Z,3.49
2019-04-16T00:52:20.772Z,3.54
2019-04-16T00:53:20.733Z,3.49
2019-04-16T00:54:20.714Z,3.54
2019-04-16T00:56:20.958Z,3.49
2019-04-16T00:57:20.707Z,3.45
2019-04-16T00:58:20.625Z,3.42
2019-04-16T00:59:21.312Z,3.41
2019-04-16T01:00:20.632Z,3.44
2019-04-16T01:01:20.563Z,3.41
2019-04-16T01:02:20.809Z,3.33
2019-04-16T01:03:20.686Z,3.23
2019-04-16T01:04:20.483Z,3.18
2019-04-16T01:05:20.529Z,3.20
2019-04-16T01:06:20.408Z,3.18
2019-04-16T01:07:20.383Z,3.17
2019-04-16T01:08:20.663Z,3.05
2019-04-16T01:09:20.332Z,3.02
2019-04-16T01:10:20.371Z,3.11
2019-04-16T01:12:20.255Z,3.14
2019-04-16T01:14:20.271Z,3.11
2019-04-16T01:15:20.504Z,3.12
2019-04-16T01:16:20.603Z,3.09
2019-04-16T01:17:20.305Z,3.12
2019-04-16T01:18:20.284Z,3.04
2019-04-16T01:19:20.187Z,3.05
2019-04-16T01:20:20.251Z,3.04
2019-04-16T01:21:20.356Z,2.97
2019-04-16T01:22:20.115Z,2.91
2019-04-16T01:23:20.085Z,2.91
2019-04-16T01:24:21.047Z,2.89
2019-04-16T01:25:20.335Z,2.91
2019-04-16T01:26:20.019Z,2.84
2019-04-16T01:27:19.895Z,2.81
2019-04-16T01:28:20.160Z,2.78
2019-04-16T01:29:19.920Z,2.71
2019-04-16T01:30:19.896Z,2.72
2019-04-16T01:31:19.872Z,2.68
2019-04-16T01:32:19.846Z,2.73
2019-04-16T01:33:19.921Z,2.75
2019-04-16T01:34:19.794Z,2.71
2019-04-16T01:35:20.049Z,2.78
2019-04-16T01:36:20.346Z,2.71
2019-04-16T01:37:19.692Z,2.54
2019-04-16T01:38:19.772Z,2.66
2019-04-16T01:39:19.659Z,2.69
2019-04-16T01:40:19.554Z,2.66
2019-04-16T01:41:21.985Z,2.68
2019-04-16T01:42:23.114Z,2.57
2019-04-16T01:43:20.272Z,2.68
2019-04-16T01:44:19.754Z,2.65
2019-04-16T01:45:19.603Z,2.57
2019-04-16T01:46:19.554Z,2.60
2019-04-16T01:47:19.958Z,2.61
2019-04-16T01:49:19.456Z,2.58
2019-04-16T01:51:19.335Z,2.57
2019-04-16T01:52:19.681Z,2.55
2019-04-16T01:53:21.084Z,2.57
2019-04-16T01:54:22.515Z,2.58
2019-04-16T01:55:19.157Z,2.57
2019-04-16T01:56:19.153Z,2.54
2019-04-16T01:57:19.476Z,2.63
2019-04-16T01:58:19.152Z,2.57
2019-04-16T01:59:19.062Z,2.57
2019-04-16T02:00:19.098Z,2.54
2019-04-16T02:01:19.001Z,2.47
2019-04-16T02:02:19.096Z,2.45
2019-04-16T02:03:19.133Z,2.48
2019-04-16T02:04:19.821Z,2.45
2019-04-16T02:05:20.358Z,2.37
2019-04-16T02:06:18.881Z,2.33
2019-04-16T02:07:19.005Z,2.37
2019-04-16T02:09:22.639Z,2.37
2019-04-16T02:10:19.088Z,2.40
2019-04-16T02:11:18.825Z,2.33
2019-04-16T02:13:18.768Z,2.43
2019-04-16T02:14:22.142Z,2.37
2019-04-16T02:15:21.638Z,2.33
2019-04-16T02:17:18.888Z,2.37
2019-04-16T02:18:18.561Z,2.32
2019-04-16T02:19:18.535Z,2.35
2019-04-16T02:20:18.517Z,2.32
2019-04-16T02:21:18.488Z,2.35
2019-04-16T02:22:18.469Z,2.24
2019-04-16T02:23:18.836Z,2.21
2019-04-16T02:24:18.860Z,2.28
2019-04-16T02:25:20.134Z,2.29
2019-04-16T02:26:20.599Z,2.24
2019-04-16T02:27:18.348Z,2.18
2019-04-16T02:28:21.429Z,2.17
2019-04-16T02:29:18.695Z,2.06
2019-04-16T02:30:19.025Z,2.11
2019-04-16T02:31:18.302Z,2.03
2019-04-16T02:32:18.212Z,2.04
2019-04-16T02:33:18.353Z,2.00
2019-04-16T02:35:18.604Z,2.00
2019-04-16T02:36:18.283Z,1.99
2019-04-16T02:37:18.072Z,2.00
2019-04-16T02:38:18.219Z,2.00
2019-04-16T02:39:18.105Z,2.01
2019-04-16T02:40:18.903Z,2.03
2019-04-16T02:42:18.060Z,1.99
2019-04-16T02:43:18.216Z,1.99
2019-04-16T02:44:17.895Z,1.97
2019-04-16T02:45:22.454Z,2.04
2019-04-16T02:47:17.828Z,2.00
2019-04-16T02:48:18.110Z,2.00
2019-04-16T02:50:17.845Z,2.01
2019-04-16T02:51:17.724Z,2.04
2019-04-16T02:52:17.688Z,2.04
2019-04-16T02:53:24.289Z,2.01
2019-04-16T02:54:17.732Z,2.03
2019-04-16T02:55:17.913Z,2.00
2019-04-16T02:56:19.109Z,2.03
2019-04-16T02:58:17.528Z,2.04
2019-04-16T02:59:17.502Z,1.93
2019-04-16T03:00:18.510Z,1.91
2019-04-16T03:01:20.672Z,1.93
2019-04-16T03:02:22.702Z,2.01
2019-04-16T03:03:17.472Z,1.89
2019-04-16T03:04:17.371Z,1.92
2019-04-16T03:05:17.344Z,1.89
2019-04-16T03:06:17.333Z,1.91
2019-04-16T03:07:17.296Z,1.87
2019-04-16T03:08:17.273Z,1.84
2019-04-16T03:10:17.614Z,1.93
2019-04-16T03:12:17.647Z,1.78
2019-04-16T03:13:17.263Z,1.81
2019-04-16T03:14:17.224Z,1.78
2019-04-16T03:15:17.160Z,1.77
2019-04-16T03:16:17.459Z,1.75
2019-04-16T03:17:17.350Z,1.84
2019-04-16T03:18:17.008Z,1.64
2019-04-16T03:19:20.025Z,1.67
2019-04-16T03:20:16.959Z,1.73
2019-04-16T03:21:16.947Z,1.64
2019-04-16T03:22:17.001Z,1.62
2019-04-16T03:23:17.012Z,1.60
2019-04-16T03:24:17.152Z,1.60
2019-04-16T03:26:18.175Z,1.41
2019-04-16T03:27:21.916Z,1.45
2019-04-16T03:28:16.743Z,1.46
2019-04-16T03:29:16.821Z,1.41
2019-04-16T03:30:16.735Z,1.46
2019-04-16T03:31:22.499Z,1.48
2019-04-16T03:32:16.744Z,1.48
2019-04-16T03:33:16.685Z,1.48
2019-04-16T03:34:19.286Z,1.49
2019-04-16T03:36:16.634Z,1.46
2019-04-16T03:37:16.927Z,1.46
2019-04-16T03:38:16.545Z,1.44
2019-04-16T03:40:18.633Z,1.42
2019-04-16T03:41:16.504Z,1.49
2019-04-16T03:43:16.344Z,1.44
2019-04-16T03:44:16.636Z,1.39
2019-04-16T03:45:16.384Z,1.42
2019-04-16T03:46:16.385Z,1.45
2019-04-16T03:47:19.121Z,1.48
2019-04-16T03:48:16.281Z,1.49
2019-04-16T03:49:16.193Z,1.38
2019-04-16T03:50:16.644Z,1.44
2019-04-16T03:51:16.137Z,1.52
2019-04-16T03:52:16.109Z,1.36
2019-04-16T03:53:17.814Z,1.45
2019-04-16T03:54:18.892Z,1.44
2019-04-16T03:55:16.025Z,1.38
2019-04-16T03:56:16.324Z,1.38
2019-04-16T03:57:15.977Z,1.42
2019-04-16T03:58:16.033Z,1.42
2019-04-16T03:59:16.009Z,1.38
2019-04-16T04:00:16.008Z,1.44
2019-04-16T04:01:15.966Z,1.44
2019-04-16T04:02:21.728Z,1.46
2019-04-16T04:03:15.812Z,1.39
2019-04-16T04:04:15.862Z,1.46
2019-04-16T04:05:15.757Z,1.34
2019-04-16T04:06:15.834Z,1.38
2019-04-16T04:07:15.943Z,1.39
2019-04-16T04:08:17.938Z,1.36
2019-04-16T04:09:18.726Z,1.26
2019-04-16T04:10:29.030Z,1.26
2019-04-16T04:11:15.786Z,1.31
2019-04-16T04:13:18.611Z,1.44
2019-04-16T04:14:15.622Z,1.38
2019-04-16T04:17:15.607Z,1.36
2019-04-16T04:18:15.563Z,1.31
2019-04-16T04:20:18.448Z,1.24
2019-04-16T04:21:15.498Z,1.30
2019-04-16T04:23:15.585Z,1.27
2019-04-16T04:26:15.313Z,1.27
2019-04-16T04:27:18.727Z,1.28
2019-04-16T04:28:18.489Z,1.41
2019-04-16T04:29:15.131Z,1.41
2019-04-16T04:30:15.496Z,1.46
2019-04-16T04:31:15.294Z,1.49
2019-04-16T04:32:15.234Z,1.41
2019-04-16T04:34:17.186Z,1.38
2019-04-16T04:35:20.221Z,1.38
2019-04-16T04:36:15.007Z,1.44
2019-04-16T04:37:15.270Z,1.39
2019-04-16T04:38:14.914Z,1.39
2019-04-16T04:39:15.859Z,1.44
2019-04-16T04:41:14.906Z,1.52
2019-04-16T04:42:14.896Z,1.44
2019-04-16T04:43:10.024Z,1.44
2019-04-16T04:43:14.840Z,1.42
2019-04-16T04:44:15.222Z,1.46
2019-04-16T04:45:15.453Z,1.45
2019-04-16T04:48:15.297Z,1.55
2019-04-16T04:49:14.642Z,1.57
2019-04-16T04:50:14.614Z,1.55
2019-04-16T04:51:15.073Z,1.62
2019-04-16T04:52:15.208Z,1.66
2019-04-16T04:53:15.610Z,1.63
2019-04-16T04:55:14.502Z,1.63
2019-04-16T04:57:14.838Z,1.77
2019-04-16T04:59:14.360Z,1.80
2019-04-16T05:00:14.349Z,1.91
2019-04-16T05:01:15.069Z,1.92
2019-04-16T05:03:15.862Z,1.87
2019-04-16T05:04:19.272Z,2.01
2019-04-16T05:05:14.291Z,2.00
2019-04-16T05:07:15.118Z,2.01
2019-04-16T05:08:14.096Z,2.00
2019-04-16T05:09:14.396Z,2.15
2019-04-16T05:10:14.107Z,2.15
2019-04-16T05:11:15.855Z,2.28
2019-04-16T05:12:14.270Z,2.30
2019-04-16T05:13:13.989Z,2.29
2019-04-16T05:14:14.365Z,2.35
2019-04-16T05:15:14.632Z,2.40
2019-04-16T05:16:13.867Z,2.42
2019-04-16T05:17:13.836Z,2.48
2019-04-16T05:18:13.856Z,2.58
2019-04-16T05:19:15.568Z,2.53
2019-04-16T05:20:15.371Z,2.54
2019-04-16T05:21:17.821Z,2.53
2019-04-16T05:22:13.807Z,2.58
2019-04-16T05:23:13.994Z,2.63
2019-04-16T05:24:14.479Z,2.81
2019-04-16T05:25:14.181Z,2.78
2019-04-16T05:27:14.228Z,2.84
2019-04-16T05:29:16.856Z,2.93
2019-04-16T05:30:13.554Z,2.91
2019-04-16T05:32:13.447Z,3.04
2019-04-16T05:33:13.472Z,2.99
2019-04-16T05:34:17.437Z,3.08
2019-04-16T05:35:13.463Z,3.07
2019-04-16T05:36:14.252Z,3.23
2019-04-16T05:37:13.336Z,3.18
2019-04-16T05:38:13.431Z,3.25
2019-04-16T05:39:13.374Z,3.20
2019-04-16T05:40:13.376Z,3.30
2019-04-16T05:41:17.119Z,3.29
2019-04-16T05:42:13.555Z,3.32
2019-04-16T05:43:14.082Z,3.44
2019-04-16T05:44:13.260Z,3.44
2019-04-16T05:45:13.344Z,3.37
2019-04-16T05:46:13.202Z,3.52
2019-04-16T05:47:16.817Z,3.52
2019-04-16T05:48:13.339Z,3.54
2019-04-16T05:49:13.118Z,3.54
2019-04-16T05:50:13.087Z,3.55
2019-04-16T05:51:12.979Z,3.62
2019-04-16T05:52:12.941Z,3.74
2019-04-16T05:53:13.699Z,3.72
2019-04-16T05:54:13.293Z,3.81
2019-04-16T05:55:16.750Z,3.73
2019-04-16T05:56:12.918Z,3.84
2019-04-16T05:57:13.273Z,3.84
2019-04-16T05:58:13.055Z,3.88
2019-04-16T05:59:12.903Z,4.05
2019-04-16T06:00:12.800Z,3.98
2019-04-16T06:01:13.756Z,4.08
2019-04-16T06:04:13.078Z,4.18
2019-04-16T06:05:12.816Z,4.21
2019-04-16T06:06:12.650Z,4.20
2019-04-16T06:07:12.593Z,4.31
2019-04-16T06:08:12.848Z,4.38
2019-04-16T06:09:13.317Z,4.43
2019-04-16T06:10:17.106Z,4.48
2019-04-16T06:11:26.644Z,4.46
2019-04-16T06:12:12.439Z,4.46
2019-04-16T06:13:13.197Z,4.56
2019-04-16T06:14:17.576Z,4.60
2019-04-16T06:15:12.472Z,4.63
2019-04-16T06:16:12.327Z,4.67
2019-04-16T06:17:12.980Z,4.69
2019-04-16T06:18:12.278Z,4.77
2019-04-16T06:20:12.225Z,4.74
2019-04-16T06:22:12.491Z,4.89
2019-04-16T06:23:12.862Z,4.77
2019-04-16T06:24:12.188Z,4.85
2019-04-16T06:25:12.190Z,4.93
2019-04-16T06:27:12.065Z,5.04
2019-04-16T06:28:12.106Z,5.07
2019-04-16T06:30:11.983Z,5.14
2019-04-16T06:31:11.955Z,5.21
2019-04-16T06:32:12.233Z,5.16
2019-04-16T06:33:11.922Z,5.27
2019-04-16T06:34:11.934Z,5.27
2019-04-16T06:35:11.966Z,5.33
2019-04-16T06:36:12.118Z,5.41
2019-04-16T06:37:11.880Z,5.43
2019-04-16T06:38:11.783Z,5.44
2019-04-16T06:39:12.026Z,5.50
2019-04-16T06:40:11.746Z,5.59
2019-04-16T06:41:12.062Z,5.62
2019-04-16T06:44:11.844Z,5.65
2019-04-16T06:45:11.611Z,5.70
2019-04-16T06:46:11.584Z,5.73
2019-04-16T06:48:13.318Z,5.93
2019-04-16T06:49:11.517Z,5.98
2019-04-16T06:50:11.490Z,5.91
2019-04-16T06:51:12.607Z,5.98
2019-04-16T06:52:16.046Z,5.97
2019-04-16T06:53:12.357Z,6.03
2019-04-16T06:54:11.434Z,6.11
2019-04-16T06:55:11.676Z,6.18
2019-04-16T06:56:11.352Z,6.28
2019-04-16T06:57:12.150Z,6.21
2019-04-16T06:58:12.582Z,6.34
2019-04-16T06:59:11.301Z,6.30
2019-04-16T07:00:11.260Z,6.52
2019-04-16T07:02:11.512Z,6.57
2019-04-16T07:03:11.473Z,6.55
2019-04-16T07:04:11.182Z,6.64
2019-04-16T07:05:11.211Z,6.60
2019-04-16T07:06:11.134Z,6.65
2019-04-16T07:07:11.088Z,6.75
2019-04-16T07:08:11.067Z,6.79
2019-04-16T07:09:11.410Z,6.71
2019-04-16T07:10:11.082Z,6.82
2019-04-16T07:11:11.048Z,6.82
2019-04-16T07:13:11.436Z,6.93
2019-04-16T07:14:11.555Z,6.88
2019-04-16T07:16:11.377Z,7.25
2019-04-16T07:17:10.854Z,7.34
2019-04-16T07:18:12.104Z,7.39
2019-04-16T07:20:13.486Z,7.54
2019-04-16T07:21:10.755Z,7.57
2019-04-16T07:22:11.403Z,7.64
2019-04-16T07:23:11.038Z,7.69
2019-04-16T07:24:10.759Z,7.77
2019-04-16T07:25:10.747Z,7.80
2019-04-16T07:26:14.395Z,8.05
2019-04-16T07:27:10.861Z,8.32
2019-04-16T07:28:10.671Z,8.67
2019-04-16T07:29:10.580Z,8.95
2019-04-16T07:30:10.721Z,9.32
2019-04-16T07:31:13.713Z,9.60
2019-04-16T07:33:10.483Z,9.81
2019-04-16T07:34:10.507Z,10.08
2019-04-16T07:35:10.509Z,10.01
2019-04-16T07:36:11.025Z,10.18
2019-04-16T07:37:10.526Z,10.35
2019-04-16T07:38:11.685Z,10.54
2019-04-16T07:39:13.265Z,10.65
2019-04-16T07:40:10.678Z,10.73
2019-04-16T07:41:12.111Z,10.65
2019-04-16T07:42:14.043Z,10.83
2019-04-16T07:43:10.485Z,10.91
2019-04-16T07:44:11.243Z,10.85
2019-04-16T07:46:10.290Z,11.08
2019-04-16T07:47:10.944Z,11.27
2019-04-16T07:48:10.474Z,11.54
2019-04-16T07:49:10.500Z,11.49
2019-04-16T07:50:10.148Z,11.46
2019-04-16T07:51:10.136Z,11.43
2019-04-16T07:52:12.176Z,11.59
2019-04-16T07:53:13.213Z,11.62
2019-04-16T07:54:10.581Z,11.80
2019-04-16T07:55:10.129Z,11.79
2019-04-16T07:56:10.034Z,12.00
2019-04-16T07:58:11.188Z,12.50
2019-04-16T07:59:09.959Z,12.44
2019-04-16T08:00:10.304Z,12.48
2019-04-16T08:01:12.687Z,12.71
2019-04-16T08:02:09.905Z,12.71
2019-04-16T08:03:09.877Z,12.54
2019-04-16T08:04:09.982Z,12.65
2019-04-16T08:05:10.497Z,12.84
2019-04-16T08:06:14.377Z,12.99
2019-04-16T08:08:09.807Z,13.55
2019-04-16T08:09:10.993Z,13.32
2019-04-16T08:10:09.823Z,12.99
2019-04-16T08:11:09.832Z,13.38
2019-04-16T08:13:10.367Z,13.42
2019-04-16T08:14:10.313Z,13.76
2019-04-16T08:15:14.823Z,14.18
2019-04-16T08:16:09.670Z,14.31
2019-04-16T08:17:09.680Z,14.34
2019-04-16T08:18:10.118Z,14.63
2019-04-16T08:20:09.888Z,14.53
2019-04-16T08:21:12.302Z,14.58
2019-04-16T08:22:09.589Z,14.70
2019-04-16T08:23:09.612Z,14.95
2019-04-16T08:24:09.540Z,15.05
2019-04-16T08:25:09.818Z,15.25
2019-04-16T08:26:12.955Z,15.29
2019-04-16T08:28:09.472Z,15.50
2019-04-16T08:29:09.531Z,15.59
2019-04-16T08:30:09.453Z,15.36
2019-04-16T08:31:12.266Z,15.30
2019-04-16T08:32:09.448Z,15.33
2019-04-16T08:33:11.212Z,15.29
2019-04-16T08:34:09.765Z,15.05
2019-04-16T08:36:09.451Z,15.07
2019-04-16T08:37:09.380Z,15.23
2019-04-16T08:39:09.430Z,15.40
2019-04-16T08:40:12.534Z,15.59
2019-04-16T08:41:12.408Z,15.88
2019-04-16T08:42:09.356Z,16.06
2019-04-16T08:43:09.568Z,15.99
2019-04-16T08:45:09.336Z,16.00
2019-04-16T08:46:11.302Z,16.51
2019-04-16T08:47:11.996Z,16.64
2019-04-16T08:48:09.710Z,16.83
2019-04-16T08:51:09.440Z,16.98
2019-04-16T08:52:10.167Z,17.04
2019-04-16T08:53:13.550Z,16.82
2019-04-16T08:55:09.115Z,16.79
2019-04-16T08:56:09.448Z,16.80
2019-04-16T08:57:09.165Z,16.70
2019-04-16T08:58:12.195Z,16.82
2019-04-16T08:59:10.167Z,16.64
2019-04-16T09:00:14.087Z,16.47
2019-04-16T09:01:09.359Z,16.58
2019-04-16T09:02:09.044Z,16.67
2019-04-16T09:03:09.032Z,16.32
2019-04-16T09:04:09.070Z,16.29
2019-04-16T09:05:11.519Z,16.44
2019-04-16T09:07:11.972Z,16.37
2019-04-16T09:08:12.863Z,16.67
2019-04-16T09:09:14.649Z,17.17
2019-04-16T09:10:17.451Z,17.10
2019-04-16T09:12:09.778Z,17.12
2019-04-16T09:14:08.872Z,17.66
2019-04-16T09:15:09.012Z,17.88
2019-04-16T09:16:10.950Z,17.84
2019-04-16T09:17:09.944Z,17.99
2019-04-16T09:18:09.216Z,17.94
2019-04-16T09:20:09.681Z,17.87
2019-04-16T09:21:10.516Z,17.62
2019-04-16T09:22:08.816Z,17.78
2019-04-16T09:25:12.487Z,17.96
2019-04-16T09:26:14.142Z,18.08
2019-04-16T09:27:12.451Z,17.97
2019-04-16T09:28:23.828Z,18.24
2019-04-16T09:29:10.302Z,18.48
2019-04-16T09:30:10.599Z,18.42
2019-04-16T09:32:09.054Z,18.31
2019-04-16T09:34:08.790Z,17.79
2019-04-16T09:35:11.326Z,18.39
2019-04-16T09:37:08.728Z,18.48
2019-04-16T09:38:09.320Z,18.51
2019-04-16T09:39:09.192Z,18.79
2019-04-16T09:40:16.525Z,18.67
2019-04-16T09:41:08.635Z,18.85
2019-04-16T09:42:08.576Z,18.88
2019-04-16T09:43:16.493Z,18.12
2019-04-16T09:44:08.540Z,17.90
2019-04-16T09:45:08.843Z,17.96
2019-04-16T09:46:10.487Z,18.17
2019-04-16T09:47:08.518Z,18.56
2019-04-16T09:48:08.631Z,18.48
2019-04-16T09:49:08.605Z,18.20
2019-04-16T09:50:11.151Z,18.34
2019-04-16T09:52:08.576Z,17.41
2019-04-16T09:53:08.817Z,17.56
2019-04-16T09:54:12.432Z,17.27
2019-04-16T09:55:08.609Z,17.47
2019-04-16T09:56:08.643Z,17.97
2019-04-16T09:57:08.588Z,18.06
2019-04-16T09:58:08.711Z,18.09
2019-04-16T09:59:11.055Z,18.43
2019-04-16T10:00:08.599Z,18.57
2019-04-16T10:01:08.386Z,18.52
2019-04-16T10:02:08.401Z,18.79
2019-04-16T10:03:08.504Z,19.01
2019-04-16T10:05:08.751Z,18.76
2019-04-16T10:06:08.345Z,19.01
2019-04-16T10:07:08.407Z,18.83
2019-04-16T10:08:09.521Z,18.93
2019-04-16T10:09:08.329Z,19.16
2019-04-16T10:10:08.299Z,19.20
2019-04-16T10:11:08.418Z,18.52
2019-04-16T10:12:08.845Z,18.38
2019-04-16T10:13:08.415Z,18.23
2019-04-16T10:14:08.497Z,18.33
2019-04-16T10:15:08.444Z,18.51
2019-04-16T10:16:08.369Z,18.64
2019-04-16T10:17:08.279Z,18.57
2019-04-16T10:18:08.328Z,18.45
2019-04-16T10:22:08.520Z,19.20
2019-04-16T10:23:09.342Z,18.93
2019-04-16T10:24:08.204Z,19.12
2019-04-16T10:25:08.379Z,19.17
2019-04-16T10:26:08.167Z,19.09
2019-04-16T10:27:08.356Z,19.38
2019-04-16T10:28:08.230Z,19.44
2019-04-16T10:29:08.486Z,19.24
2019-04-16T10:30:08.282Z,18.70
2019-04-16T10:32:08.175Z,18.98
2019-04-16T10:33:08.312Z,19.00
2019-04-16T10:34:08.159Z,18.81
2019-04-16T10:35:08.116Z,18.89
2019-04-16T10:36:08.548Z,18.51
2019-04-16T10:37:08.114Z,18.76
2019-04-16T10:38:08.071Z,19.16
2019-04-16T10:39:08.097Z,19.22
2019-04-16T10:40:08.085Z,19.17
2019-04-16T10:44:08.493Z,19.44
2019-04-16T10:45:08.244Z,19.13
2019-04-16T10:46:09.784Z,19.04
2019-04-16T10:47:08.055Z,19.08
2019-04-16T10:49:08.030Z,18.86
2019-04-16T10:50:07.992Z,18.88
2019-04-16T10:52:10.622Z,19.05
2019-04-16T10:53:07.965Z,19.20
2019-04-16T10:54:08.535Z,19.57
2019-04-16T10:55:09.302Z,19.72
2019-04-16T10:56:07.999Z,19.94
2019-04-16T10:57:10.323Z,20.05
2019-04-16T10:58:07.937Z,19.52
2019-04-16T10:59:07.899Z,19.72
2019-04-16T11:00:07.910Z,19.77
2019-04-16T11:01:08.017Z,20.07
2019-04-16T11:02:10.687Z,20.36
2019-04-16T11:03:08.250Z,19.93
2019-04-16T11:06:07.877Z,19.57
2019-04-16T11:07:07.888Z,19.30
2019-04-16T11:08:08.220Z,19.62
2019-04-16T11:09:08.154Z,20.05
2019-04-16T11:10:07.961Z,20.15
2019-04-16T11:11:07.843Z,20.75
2019-04-16T11:12:07.963Z,20.34
2019-04-16T11:13:07.836Z,20.05
2019-04-16T11:14:07.842Z,19.64
2019-04-16T11:15:08.128Z,19.42
2019-04-16T11:16:07.787Z,19.71
2019-04-16T11:17:07.937Z,19.87
2019-04-16T11:18:07.781Z,20.17
2019-04-16T11:19:07.756Z,20.08
2019-04-16T11:20:07.823Z,20.15
2019-04-16T11:22:08.403Z,19.97
2019-04-16T11:23:08.133Z,19.75
2019-04-16T11:24:07.827Z,19.81
2019-04-16T11:25:07.877Z,20.07
2019-04-16T11:26:08.476Z,20.05
2019-04-16T11:27:08.153Z,19.97
2019-04-16T11:28:07.928Z,19.90
2019-04-16T11:29:08.016Z,20.26
2019-04-16T11:30:07.743Z,20.33
2019-04-16T11:31:07.911Z,20.52
2019-04-16T11:32:08.370Z,19.97
2019-04-16T11:33:07.724Z,20.27
2019-04-16T11:34:07.784Z,20.79
2019-04-16T11:35:07.707Z,20.90
2019-04-16T11:36:18.872Z,20.83
2019-04-16T11:37:09.369Z,20.41
2019-04-16T11:38:07.843Z,19.87
2019-04-16T11:39:07.635Z,20.07
2019-04-16T11:40:07.644Z,20.27
2019-04-16T11:41:07.618Z,20.48
2019-04-16T11:42:07.634Z,20.92
2019-04-16T11:43:07.910Z,20.97
2019-04-16T11:44:15.262Z,21.38
2019-04-16T11:45:07.766Z,21.56
2019-04-16T11:46:07.604Z,21.56
2019-04-16T11:47:07.571Z,21.07
2019-04-16T11:48:07.582Z,20.68
2019-04-16T11:49:07.911Z,20.55
2019-04-16T11:50:07.849Z,20.79
2019-04-16T11:51:07.681Z,21.38
2019-04-16T11:53:07.821Z,21.43
2019-04-16T11:54:11.235Z,21.08
2019-04-16T11:55:07.693Z,21.13
2019-04-16T11:56:07.619Z,20.86
2019-04-16T11:57:07.997Z,20.89
2019-04-16T11:58:07.569Z,20.88
2019-04-16T12:00:08.517Z,20.85
2019-04-16T12:01:07.575Z,20.86
2019-04-16T12:02:07.678Z,21.10
2019-04-16T12:03:07.794Z,20.30
2019-04-16T12:04:10.926Z,20.14
2019-04-16T12:05:08.114Z,20.07
2019-04-16T12:06:07.592Z,19.86
2019-04-16T12:08:08.097Z,19.93
2019-04-16T12:09:07.463Z,19.93
2019-04-16T12:10:07.533Z,19.96
2019-04-16T12:11:07.720Z,20.08
2019-04-16T12:12:07.513Z,20.15
2019-04-16T12:13:07.516Z,20.36
2019-04-16T12:14:09.990Z,20.75
2019-04-16T12:15:07.584Z,20.73
2019-04-16T12:16:07.429Z,21.16
2019-04-16T12:17:07.527Z,21.04
2019-04-16T12:18:07.683Z,21.75
2019-04-16T12:19:07.507Z,21.19
2019-04-16T12:20:07.359Z,20.48
2019-04-16T12:21:07.452Z,20.68
2019-04-16T12:25:07.413Z,21.26
2019-04-16T12:26:09.728Z,21.43
2019-04-16T12:27:07.362Z,21.40
2019-04-16T12:28:11.597Z,21.43
2019-04-16T12:29:07.361Z,21.38
2019-04-16T12:30:07.682Z,21.37
2019-04-16T12:31:07.428Z,21.11
2019-04-16T12:32:07.439Z,21.18
2019-04-16T12:33:08.994Z,21.37
2019-04-16T12:36:12.789Z,21.85
2019-04-16T12:37:07.279Z,22.23
2019-04-16T12:38:12.225Z,22.23
2019-04-16T12:39:07.361Z,21.96
2019-04-16T12:40:07.360Z,21.48
2019-04-16T12:41:07.297Z,22.01
2019-04-16T12:43:07.565Z,20.98
2019-04-16T12:44:07.431Z,20.70
2019-04-16T12:46:07.261Z,20.86
2019-04-16T12:48:07.255Z,21.35
2019-04-16T12:49:07.213Z,21.80
2019-04-16T12:50:07.294Z,22.25
2019-04-16T12:51:07.243Z,21.82
2019-04-16T12:52:07.189Z,22.06
2019-04-16T12:54:07.162Z,21.56
2019-04-16T12:55:07.163Z,21.11
2019-04-16T12:57:10.672Z,21.08
2019-04-16T12:58:07.254Z,20.71
2019-04-16T12:59:07.232Z,21.11
2019-04-16T13:01:07.116Z,21.45
2019-04-16T13:02:12.122Z,21.71
2019-04-16T13:03:07.499Z,21.22
2019-04-16T13:04:07.700Z,20.85
2019-04-16T13:05:07.139Z,21.41
2019-04-16T13:06:07.079Z,21.44
2019-04-16T13:07:07.073Z,21.18
2019-04-16T13:08:07.103Z,21.37
2019-04-16T13:09:07.067Z,21.41
2019-04-16T13:10:07.069Z,21.18
2019-04-16T13:11:08.871Z,21.10
2019-04-16T13:12:09.402Z,21.03
2019-04-16T13:13:07.808Z,21.38
2019-04-16T13:16:07.025Z,22.31
2019-04-16T13:17:06.991Z,22.30
2019-04-16T13:18:07.551Z,22.22
2019-04-16T13:19:07.078Z,22.31
2019-04-16T13:20:07.060Z,21.67
2019-04-16T13:21:07.043Z,21.37
2019-04-16T13:22:06.980Z,21.37
2019-04-16T13:25:07.518Z,21.94
2019-04-16T13:26:11.802Z,21.56
2019-04-16T13:27:07.214Z,21.80
2019-04-16T13:28:08.481Z,21.84
2019-04-16T13:29:07.113Z,21.58
2019-04-16T13:30:07.044Z,21.59
2019-04-16T13:34:06.897Z,22.07
2019-04-16T13:35:06.914Z,21.69
2019-04-16T13:36:06.942Z,21.41
2019-04-16T13:37:06.964Z,21.05
2019-04-16T13:38:09.486Z,20.86
2019-04-16T13:39:07.219Z,21.04
2019-04-16T13:40:06.852Z,21.16
2019-04-16T13:41:06.889Z,21.43
2019-04-16T13:42:06.851Z,21.78
2019-04-16T13:43:07.215Z,21.96
2019-04-16T13:44:09.006Z,22.33
2019-04-16T13:45:16.643Z,22.34
2019-04-16T13:47:07.102Z,21.98
2019-04-16T13:48:15.698Z,21.94
2019-04-16T13:49:06.871Z,21.90
2019-04-16T13:50:06.859Z,21.45
2019-04-16T13:51:06.987Z,21.43
2019-04-16T13:52:07.195Z,21.45
2019-04-16T13:53:06.807Z,21.55
2019-04-16T13:54:07.055Z,21.84
2019-04-16T13:55:09.680Z,22.18
2019-04-16T13:57:06.869Z,22.19
2019-04-16T13:58:06.785Z,21.93
2019-04-16T13:59:06.852Z,21.82
2019-04-16T14:00:07.109Z,21.73
2019-04-16T14:01:10.121Z,21.75
2019-04-16T14:02:06.703Z,21.80
2019-04-16T14:03:06.714Z,21.71
2019-04-16T14:04:06.746Z,21.60
2019-04-16T14:06:10.440Z,21.18
2019-04-16T14:07:06.730Z,21.44
2019-04-16T14:08:06.739Z,20.73
2019-04-16T14:09:06.792Z,20.65
2019-04-16T14:11:06.685Z,21.13
2019-04-16T14:12:06.960Z,20.92
2019-04-16T14:14:08.474Z,20.95
2019-04-16T14:16:11.390Z,21.44
2019-04-16T14:17:09.743Z,21.53
2019-04-16T14:18:06.925Z,21.78
2019-04-16T14:19:06.975Z,21.82
2019-04-16T14:20:08.619Z,21.67
2019-04-16T14:21:06.597Z,21.65
2019-04-16T14:23:06.591Z,22.13
2019-04-16T14:24:06.664Z,22.03
2019-04-16T14:25:06.756Z,21.58
2019-04-16T14:26:06.649Z,21.47
2019-04-16T14:28:10.210Z,21.53
2019-04-16T14:29:07.342Z,21.10
2019-04-16T14:30:10.017Z,21.23
2019-04-16T14:31:06.615Z,21.43
2019-04-16T14:32:06.517Z,21.35
2019-04-16T14:33:07.573Z,21.28
2019-04-16T14:34:06.541Z,21.47
2019-04-16T14:35:06.661Z,21.04
2019-04-16T14:36:06.845Z,21.25
2019-04-16T14:37:06.569Z,21.38
2019-04-16T14:38:06.635Z,21.40
2019-04-16T14:39:08.427Z,21.84
2019-04-16T14:40:06.777Z,21.67
2019-04-16T14:42:06.518Z,21.03
2019-04-16T14:43:07.082Z,21.28
2019-04-16T14:44:06.416Z,21.62
2019-04-16T14:45:07.881Z,21.20
2019-04-16T14:46:08.707Z,20.85
2019-04-16T14:48:08.638Z,20.75
2019-04-16T14:51:06.591Z,21.19
2019-04-16T14:52:06.443Z,21.40
2019-04-16T14:53:06.403Z,21.47
2019-04-16T14:54:07.173Z,21.34
2019-04-16T14:56:06.928Z,21.65
2019-04-16T14:58:06.369Z,21.75
2019-04-16T14:59:06.281Z,21.71
2019-04-16T15:00:06.313Z,21.62
2019-04-16T15:01:06.276Z,21.63
2019-04-16T15:02:06.367Z,21.77
2019-04-16T15:03:06.592Z,21.45
2019-04-16T15:04:06.313Z,21.08
2019-04-16T15:05:06.351Z,20.90
2019-04-16T15:06:06.405Z,20.79
2019-04-16T15:07:06.256Z,20.70
2019-04-16T15:10:06.597Z,21.34
2019-04-16T15:11:06.532Z,21.00
2019-04-16T15:12:08.155Z,20.79
2019-04-16T15:13:06.211Z,20.65
2019-04-16T15:14:06.168Z,20.77
2019-04-16T15:15:08.765Z,20.75
2019-04-16T15:16:13.078Z,20.74
2019-04-16T15:17:06.141Z,20.85